Jose Boiteux, Brazil
Current Conditions -  °F | °C
As of 3:00 PM on Saturday 22 Nov 2014 (Local Time) from SBNF Reporting Station
Scattered Clouds Scattered Clouds  
Wind Chill: 90°   Ceiling: Unl
Heat Index: 98°   Visibility: 6mi
Dew Point: 73°   Wind: 14mph
Humidity: 59%   Direction: 290°WNW
Pressure: 29.77"   Gusts: NA
Location:  26.96°S, 49.63°W
Report Text: SBNF 221700Z 29012KT 9999 SCT025 32/23 Q1008
Loading
Personal Weather Stations






























Interactive Weather Map New forecast layout! Learn more

10-Day Weather Forecast

Advertisements
Track Severe Weather on mobile